EBCILIPH

Guest
Details From EBCI - Brussels South - Charleroi
To LIPH - Treviso
Flight Number -
Tags Generated
Created
Modified
Stats Distance 424 nm / 785 km
Max Altitude 0 ft / 0 m
Waypoints 3
Social Downloads 0
Likes 0
Share VATSIM

Download

Looking for another format? Having issues loading an existing format? Contact us
Advertisement - Login to hide

Notes

Generated

Route

EBCI ISA01 LIPH

ID Type Via Altitude Latitude Longitude Leg Dist Tot Dist Heading (true) Name
O EBCI APT - 0 ft / 0 m 50.45539˚ 4.43664˚ - 0 nm - -
ISA01 FIX - 0 ft / 0 m 45.68765˚ 12.10560˚ 419 nm 419 nm 130° / 136° -
O LIPH APT - 0 ft / 0 m 45.64464˚ 12.17963˚ 4 nm 424 nm 130° / 130° -

Altitude Profile

Advertisement - Login to hide

Weather


0- 5 10 15 20 25 30 35+ Temperature / ° C

Clouds and Precipitation
Forecast for 2018-05-27 12:00 UTC. Updated 3 hours ago

Ground ~20,000 ft ~40,000 ft Winds

EBCI

Details ICAO EBCI (CRL)
Name Brussels South - Charleroi
Region Belgium
Timezone Europe/Brussels (UTC+2.0)
Stats Elevation 614 ft / 187 m (AMSL)
Location 50.459947° 4.453125°
Runways 1
Magnetic Variation 1.195° E

METAR

EBCI 271350Z 09004KT 050V140 CAVOK 25/16 Q1017 NOSIG

Decode

TAF

TAF EBCI 271111Z 2712/2818 15007KT 9999 FEW045TCU PROB30 TEMPO 2712/2803 VRB20G35KT 2500 +SHRA TSRAGR TEMPO 2803/2807 3000 BR PROB30 TEMPO 2804/2806 1500 MIFG PROB30 TEMPO 2813/2818 VRB20G35KT 2500 +SHRA TSRAGR

Decode

Departure Runways

ID Width Length Bearing (true) Bearing (mag) Surface Threshold Offset Overrun Length
07 148 ft / 45 m 8,374 ft / 2,552 m 65.53° 64.34° Asphalt 1,476 ft / 450 m 0 ft / 0 m
25 148 ft / 45 m 8,374 ft / 2,552 m 245.55° 244.36° Asphalt 0 ft / 0 m 0 ft / 0 m

LIPH

Details ICAO LIPH (TSF)
Name TREVISO
Region Italy
Timezone Europe/Rome (UTC+2.0)
Stats Elevation 59 ft / 18 m (AMSL)
Location 45.648499° 12.194136°
Runways 1
Magnetic Variation 3.203° E

METAR

LIPH 271350Z 12008KT 070V140 9999 FEW040 29/18 Q1017

Decode

TAF

TAF LIPH 271100Z 2712/2812 VRB05KT 9999 FEW040

Decode

Destination Runways

ID Width Length Bearing (true) Bearing (mag) Surface Threshold Offset Overrun Length
07 144 ft / 44 m 7,919 ft / 2,414 m 69.18° 65.98° Asphalt 254 ft / 77 m 975 ft / 297 m
25 144 ft / 44 m 7,919 ft / 2,414 m 249.20° 246.00° Asphalt 389 ft / 119 m 0 ft / 0 m

Approach Navaids

Runway Type Ident Frequency Range Bearing (true) Bearing (mag) Slope Elevation
07 Localiser TRE 109.30 MHz 18 nm / 33 km 69.20° 66.00° - 51 ft / 16 m (AMSL)
07 Glidescope TRE 109.30 MHz 10 nm / 19 km 69.19° 65.99° 3.00° 56 ft / 17 m (AMSL)

Popular Alternatives